Time;durP1;ratioP1;P1;durP2;ratioP2;P2;SDS_P1;SDS_P2;PMS_P1;PMS_P2;Temp;Humidity;BMP_temperature;BMP_pressure;BME280_temperature;BME280_humidity;BME280_pressure;Samples;Min_cycle;Max_cycle;Signal;HPM_P1;HPM_P2
2021/12/11 00:00:25;;;;;;;0.60;0.60;;;22.10;44.90;;;;;;5073445;28;20590;-68
2021/12/11 00:03:20;;;;;;;0.60;0.60;;;22.10;44.80;;;;;;5056933;28;20228;-69
2021/12/11 00:06:05;;;;;;;0.80;0.80;;;22.10;44.80;;;;;;5070660;28;20180;-69
2021/12/11 00:08:32;;;;;;;0.50;0.50;;;22.10;44.80;;;;;;5094570;28;20187;-69
2021/12/11 00:11:09;;;;;;;0.60;0.50;;;22.10;44.90;;;;;;5059027;28;20193;-69
2021/12/11 00:13:40;;;;;;;0.50;0.50;;;22.10;44.90;;;;;;5076424;28;20168;-69
2021/12/11 00:16:11;;;;;;;0.50;0.50;;;22.20;44.90;;;;;;5093339;28;20180;-69
2021/12/11 00:18:39;;;;;;;0.50;0.50;;;22.10;44.80;;;;;;5094391;28;20652;-69
2021/12/11 00:21:18;;;;;;;0.50;0.50;;;22.10;44.90;;;;;;5059993;28;20204;-69
2021/12/11 00:23:52;;;;;;;0.60;0.60;;;22.20;44.90;;;;;;5090303;28;20177;-69
2021/12/11 00:26:39;;;;;;;0.52;0.52;;;22.10;44.90;;;;;;5061017;28;20208;-69
2021/12/11 00:29:09;;;;;;;0.45;0.45;;;22.20;44.90;;;;;;5084377;28;20177;-68
2021/12/11 00:31:45;;;;;;;0.70;0.60;;;22.20;44.90;;;;;;5094308;28;20258;-69
2021/12/11 00:34:15;;;;;;;0.60;0.60;;;22.20;44.90;;;;;;5067667;28;20602;-69
2021/12/11 00:36:52;;;;;;;0.57;0.52;;;22.20;44.90;;;;;;5080578;28;20182;-69
2021/12/11 00:39:18;;;;;;;0.77;0.65;;;22.20;44.90;;;;;;5055680;28;20215;-69
2021/12/11 00:41:50;;;;;;;0.60;0.60;;;22.20;44.90;;;;;;5056047;28;20208;-69
2021/12/11 00:44:16;;;;;;;0.50;0.50;;;22.20;44.90;;;;;;5056216;28;20215;-69
2021/12/11 00:46:42;;;;;;;0.50;0.50;;;22.20;44.90;;;;;;5073747;28;20225;-68
2021/12/11 00:49:14;;;;;;;0.60;0.60;;;22.20;44.90;;;;;;5039257;28;20215;-69
2021/12/11 00:51:40;;;;;;;0.50;0.50;;;22.20;44.90;;;;;;5055995;28;20667;-69
2021/12/11 00:54:07;;;;;;;1.00;0.80;;;22.20;44.90;;;;;;5055681;28;20194;-69
2021/12/11 00:56:39;;;;;;;0.75;0.60;;;22.20;44.90;;;;;;5062461;28;20180;-69
2021/12/11 00:59:12;;;;;;;0.50;0.50;;;22.20;44.90;;;;;;5050323;28;20228;-69
2021/12/11 01:02:06;;;;;;;0.70;0.70;;;22.20;44.90;;;;;;5055590;28;20213;-69
2021/12/11 01:04:41;;;;;;;1.30;0.40;;;22.20;44.90;;;;;;5047198;28;20767;-69
2021/12/11 01:07:22;;;;;;;0.60;0.60;;;22.20;44.90;;;;;;5072229;28;20177;-69
2021/12/11 01:10:06;;;;;;;0.50;0.50;;;22.20;44.90;;;;;;5058629;28;20222;-69
2021/12/11 01:12:46;;;;;;;1.05;0.70;;;22.20;44.90;;;;;;5075334;28;20212;-69
2021/12/11 01:15:30;;;;;;;0.40;0.40;;;22.20;44.90;;;;;;5058692;28;20168;-69
2021/12/11 01:21:05;;;;;;;1.38;0.57;;;22.20;44.90;;;;;;5093392;28;20222;-69
2021/12/11 01:26:10;;;;;;;0.50;0.50;;;22.20;44.90;;;;;;5093182;28;20282;-69
2021/12/11 01:28:37;;;;;;;0.43;0.43;;;22.20;44.90;;;;;;5084488;28;20180;-69
2021/12/11 01:31:09;;;;;;;0.52;0.52;;;22.20;44.90;;;;;;5074928;28;20208;-69
2021/12/11 01:33:36;;;;;;;0.57;0.50;;;22.20;44.90;;;;;;5054048;28;20193;-69
2021/12/11 01:36:05;;;;;;;0.50;0.50;;;22.20;44.90;;;;;;5081009;28;20223;-69
2021/12/11 01:38:31;;;;;;;0.50;0.50;;;22.20;44.90;;;;;;5054843;28;20209;-69
2021/12/11 01:41:03;;;;;;;0.50;0.50;;;22.20;44.80;;;;;;5054741;28;20206;-69
2021/12/11 01:43:33;;;;;;;0.63;0.63;;;22.20;44.80;;;;;;5072904;28;20279;-69
2021/12/11 01:46:06;;;;;;;0.80;0.70;;;22.20;45.00;;;;;;5038092;28;20186;-69
2021/12/11 01:48:38;;;;;;;0.60;0.50;;;22.20;44.90;;;;;;5071413;28;20178;-69
2021/12/11 01:51:10;;;;;;;0.52;0.52;;;22.20;44.90;;;;;;5054979;28;20197;-69
2021/12/11 01:53:47;;;;;;;0.50;0.50;;;22.20;44.90;;;;;;5072528;28;20194;-69
2021/12/11 01:56:19;;;;;;;0.40;0.40;;;22.20;45.00;;;;;;5073669;28;20201;-68
2021/12/11 01:59:12;;;;;;;0.60;0.60;;;22.20;44.90;;;;;;5070985;28;20236;-68
2021/12/11 02:01:53;;;;;;;0.40;0.40;;;22.10;44.90;;;;;;5053619;28;20308;-68
2021/12/11 02:04:26;;;;;;;1.17;0.50;;;22.20;44.90;;;;;;5065038;28;20208;-68
2021/12/11 02:06:54;;;;;;;0.50;0.45;;;22.20;44.90;;;;;;5060019;28;20174;-69
2021/12/11 02:09:29;;;;;;;0.50;0.50;;;22.20;44.90;;;;;;5054128;28;20272;-69
2021/12/11 02:12:18;;;;;;;0.40;0.40;;;22.20;44.90;;;;;;5054443;28;20209;-68
2021/12/11 02:14:51;;;;;;;0.55;0.47;;;22.10;44.90;;;;;;5037771;28;20185;-69
2021/12/11 02:17:44;;;;;;;0.85;0.43;;;22.20;44.90;;;;;;5054342;28;20205;-68
2021/12/11 02:20:27;;;;;;;0.98;0.50;;;22.20;44.90;;;;;;5054364;28;20177;-69
2021/12/11 02:22:54;;;;;;;0.40;0.40;;;22.20;44.90;;;;;;5072122;28;20213;-69
2021/12/11 02:25:28;;;;;;;0.50;0.50;;;22.20;44.90;;;;;;5037613;28;20181;-69
2021/12/11 02:28:08;;;;;;;0.40;0.40;;;22.20;44.80;;;;;;5065390;28;20185;-68
2021/12/11 02:30:51;;;;;;;0.63;0.60;;;22.20;44.90;;;;;;5091019;28;20187;-68
2021/12/11 02:33:30;;;;;;;0.40;0.40;;;22.20;44.90;;;;;;5073940;28;20181;-69
2021/12/11 02:36:08;;;;;;;0.60;0.43;;;22.20;44.90;;;;;;5069458;28;20279;-69
2021/12/11 02:38:45;;;;;;;0.50;0.50;;;22.20;44.90;;;;;;5066625;28;20181;-69
2021/12/11 02:41:49;;;;;;;1.13;0.50;;;22.20;44.90;;;;;;5074940;28;20224;-69
2021/12/11 02:44:33;;;;;;;0.40;0.40;;;22.20;44.90;;;;;;5076090;28;20169;-69
2021/12/11 02:47:34;;;;;;;0.45;0.45;;;22.20;44.90;;;;;;5074840;28;20189;-69
2021/12/11 02:50:14;;;;;;;0.40;0.40;;;22.20;44.90;;;;;;5058321;28;20190;-69
2021/12/11 02:52:57;;;;;;;0.30;0.30;;;22.20;44.90;;;;;;5057943;28;20201;-69
2021/12/11 02:55:47;;;;;;;0.65;0.40;;;22.20;44.90;;;;;;5057911;28;20178;-69
2021/12/11 02:58:23;;;;;;;0.50;0.50;;;22.20;44.80;;;;;;5065936;28;20181;-69
2021/12/11 03:01:05;;;;;;;0.45;0.45;;;22.20;44.90;;;;;;5057869;28;20260;-69
2021/12/11 03:03:40;;;;;;;0.40;0.40;;;22.20;44.90;;;;;;5057944;28;20205;-68
2021/12/11 03:06:17;;;;;;;0.35;0.30;;;22.20;44.80;;;;;;5058148;28;20269;-69
2021/12/11 03:08:44;;;;;;;0.50;0.50;;;22.20;44.90;;;;;;5077511;28;20172;-69
2021/12/11 03:11:15;;;;;;;0.30;0.30;;;22.20;44.80;;;;;;5095751;28;20200;-69
2021/12/11 03:13:50;;;;;;;0.30;0.30;;;22.20;44.90;;;;;;5077889;28;20181;-69
2021/12/11 03:16:25;;;;;;;0.30;0.30;;;22.20;44.90;;;;;;5061097;28;20184;-69
2021/12/11 03:18:52;;;;;;;1.05;0.50;;;22.20;44.80;;;;;;5077390;28;20168;-69
2021/12/11 03:21:19;;;;;;;0.30;0.30;;;22.20;44.90;;;;;;5081815;28;20205;-69
2021/12/11 03:23:45;;;;;;;0.40;0.40;;;22.20;44.80;;;;;;5065382;28;20213;-69
2021/12/11 03:26:11;;;;;;;0.30;0.30;;;22.20;44.90;;;;;;5069365;28;20215;-69
2021/12/11 03:28:38;;;;;;;0.68;0.40;;;22.20;44.90;;;;;;5074035;28;20555;-68
2021/12/11 03:31:07;;;;;;;0.60;0.50;;;22.20;44.80;;;;;;5057294;28;20297;-68
2021/12/11 03:33:45;;;;;;;0.40;0.40;;;22.20;44.80;;;;;;5057264;28;20192;-69
2021/12/11 03:36:16;;;;;;;0.30;0.30;;;22.20;44.90;;;;;;5041705;28;20203;-68
2021/12/11 03:38:48;;;;;;;0.30;0.30;;;22.20;44.90;;;;;;5060582;28;20188;-69
2021/12/11 03:41:15;;;;;;;0.40;0.40;;;22.20;44.90;;;;;;5060912;28;20204;-68
2021/12/11 03:43:41;;;;;;;0.40;0.40;;;22.20;44.90;;;;;;5076877;28;20668;-68
2021/12/11 03:46:10;;;;;;;0.65;0.40;;;22.20;44.90;;;;;;5095202;28;20276;-68
2021/12/11 03:48:47;;;;;;;0.43;0.40;;;22.20;44.90;;;;;;5077060;28;20280;-68
2021/12/11 03:51:20;;;;;;;0.30;0.30;;;22.20;44.90;;;;;;5077049;28;20192;-68
2021/12/11 03:53:46;;;;;;;0.40;0.40;;;22.20;44.90;;;;;;5076952;28;20264;-68
2021/12/11 03:56:16;;;;;;;0.40;0.40;;;22.20;44.90;;;;;;5077134;28;20573;-69
2021/12/11 03:58:50;;;;;;;0.40;0.40;;;22.20;44.90;;;;;;5068539;28;20177;-68
2021/12/11 04:01:30;;;;;;;0.40;0.40;;;22.20;44.90;;;;;;5060075;28;20292;-68
2021/12/11 04:04:05;;;;;;;0.30;0.30;;;22.20;44.80;;;;;;5095015;28;20173;-68
2021/12/11 04:06:32;;;;;;;0.40;0.40;;;22.20;44.90;;;;;;5076846;28;20184;-68
2021/12/11 04:09:02;;;;;;;0.30;0.30;;;22.20;44.90;;;;;;5086127;28;20188;-68
2021/12/11 04:11:33;;;;;;;0.30;0.30;;;22.20;44.90;;;;;;5060347;28;20270;-69
2021/12/11 04:14:07;;;;;;;0.57;0.57;;;22.20;44.90;;;;;;5094709;28;20227;-69
2021/12/11 04:16:34;;;;;;;0.73;0.50;;;22.20;44.90;;;;;;5076593;28;20286;-69
2021/12/11 04:19:01;;;;;;;0.30;0.30;;;22.20;44.90;;;;;;5076412;28;20705;-69
2021/12/11 04:21:27;;;;;;;0.40;0.40;;;22.20;44.90;;;;;;5094493;28;20201;-69
2021/12/11 04:23:54;;;;;;;0.50;0.50;;;22.20;44.90;;;;;;5076444;28;20173;-68
2021/12/11 04:26:21;;;;;;;0.40;0.40;;;22.20;44.90;;;;;;5059525;28;20571;-68
2021/12/11 04:28:47;;;;;;;0.40;0.40;;;22.20;44.90;;;;;;5070106;28;20177;-68
2021/12/11 04:31:24;;;;;;;0.40;0.40;;;22.20;44.90;;;;;;5056099;28;20213;-68
2021/12/11 04:33:56;;;;;;;0.30;0.30;;;22.20;44.90;;;;;;5056365;28;20220;-68
2021/12/11 04:36:28;;;;;;;0.40;0.40;;;22.20;44.80;;;;;;5060104;28;20200;-68
2021/12/11 04:38:56;;;;;;;0.40;0.40;;;22.10;44.80;;;;;;5067473;28;20192;-68
2021/12/11 04:41:36;;;;;;;0.50;0.50;;;22.20;44.90;;;;;;5059698;28;20258;-69
2021/12/11 04:44:09;;;;;;;0.40;0.40;;;22.20;44.90;;;;;;5094191;28;20173;-69
2021/12/11 04:46:35;;;;;;;0.35;0.35;;;22.20;44.90;;;;;;5092893;28;20177;-69
2021/12/11 04:49:19;;;;;;;0.40;0.40;;;22.20;44.90;;;;;;5075934;28;20271;-69
2021/12/11 04:51:50;;;;;;;0.50;0.40;;;22.20;44.90;;;;;;5075776;28;20208;-69
2021/12/11 04:54:50;;;;;;;0.40;0.40;;;22.20;44.90;;;;;;5075838;28;20192;-69
2021/12/11 05:00:27;;;;;;;0.63;0.40;;;22.20;44.80;;;;;;5070597;28;20203;-68
2021/12/11 05:10:53;;;;;;;0.30;0.30;;;22.20;44.80;;;;;;5073348;28;20182;-69
2021/12/11 05:13:25;;;;;;;0.50;0.50;;;22.20;44.90;;;;;;5073345;28;20166;-69
2021/12/11 05:15:53;;;;;;;0.40;0.40;;;22.20;44.80;;;;;;5072471;28;20577;-68
2021/12/11 05:18:24;;;;;;;0.40;0.40;;;22.20;44.90;;;;;;5055125;28;20185;-68
2021/12/11 05:20:57;;;;;;;0.30;0.30;;;22.20;44.90;;;;;;5055165;28;20673;-68
2021/12/11 05:23:23;;;;;;;0.68;0.30;;;22.20;44.90;;;;;;5038571;28;20212;-69
2021/12/11 05:25:50;;;;;;;0.40;0.40;;;22.20;45.00;;;;;;5056292;28;20653;-68
2021/12/11 05:28:16;;;;;;;0.40;0.40;;;22.20;45.00;;;;;;5066333;28;20265;-69
2021/12/11 05:30:51;;;;;;;0.45;0.40;;;22.20;45.00;;;;;;5075304;28;20279;-69
2021/12/11 05:33:19;;;;;;;0.40;0.40;;;22.20;45.00;;;;;;5075347;28;20181;-69
2021/12/11 05:35:47;;;;;;;0.40;0.40;;;22.20;45.00;;;;;;5093098;28;20181;-69
2021/12/11 05:38:17;;;;;;;0.40;0.40;;;22.20;45.00;;;;;;5056731;28;20196;-69
2021/12/11 05:40:49;;;;;;;0.40;0.40;;;22.20;45.00;;;;;;5038230;28;20200;-69
2021/12/11 05:43:15;;;;;;;0.40;0.40;;;22.20;45.10;;;;;;5054802;28;20231;-69
2021/12/11 05:45:43;;;;;;;0.40;0.40;;;22.20;45.00;;;;;;5054965;28;20184;-69
2021/12/11 05:48:10;;;;;;;0.40;0.40;;;22.30;45.10;;;;;;5071177;28;20588;-69
2021/12/11 05:50:44;;;;;;;0.40;0.40;;;22.20;45.00;;;;;;5054871;28;20178;-69
2021/12/11 05:53:11;;;;;;;0.40;0.40;;;22.20;45.00;;;;;;5091540;22;20228;-71
2021/12/11 05:55:40;;;;;;;0.50;0.50;;;22.20;45.20;;;;;;5092665;28;20161;-71
2021/12/11 05:58:13;;;;;;;0.52;0.40;;;22.20;45.00;;;;;;5083547;28;20200;-71
2021/12/11 06:00:49;;;;;;;0.40;0.40;;;22.20;45.10;;;;;;5054884;28;20602;-71
2021/12/11 06:03:16;;;;;;;0.52;0.52;;;22.20;45.10;;;;;;5071008;28;20224;-71
2021/12/11 06:05:43;;;;;;;0.47;0.40;;;22.20;45.10;;;;;;5071329;28;20181;-71
2021/12/11 06:08:10;;;;;;;0.30;0.30;;;22.20;45.10;;;;;;5078829;28;20193;-71
2021/12/11 06:10:40;;;;;;;0.40;0.40;;;22.20;45.10;;;;;;5071408;28;20178;-71
2021/12/11 06:13:09;;;;;;;0.30;0.30;;;22.20;45.00;;;;;;5071182;28;20198;-71
2021/12/11 06:15:36;;;;;;;0.30;0.30;;;22.20;45.10;;;;;;5071502;28;20181;-72
2021/12/11 06:18:04;;;;;;;0.40;0.40;;;22.20;45.00;;;;;;5071021;28;20594;-71
2021/12/11 06:20:32;;;;;;;0.30;0.30;;;22.20;45.00;;;;;;5072321;28;20185;-71
2021/12/11 06:22:58;;;;;;;0.30;0.30;;;22.20;45.00;;;;;;5070895;28;20308;-71
2021/12/11 06:25:29;;;;;;;0.65;0.40;;;22.30;45.10;;;;;;5087829;28;20174;-72
2021/12/11 06:27:56;;;;;;;0.30;0.30;;;22.20;45.10;;;;;;5082089;28;20195;-71
2021/12/11 06:30:22;;;;;;;0.32;0.32;;;22.20;45.00;;;;;;5090020;28;20181;-72
2021/12/11 06:32:51;;;;;;;0.40;0.40;;;22.20;45.10;;;;;;5091138;28;20254;-72
2021/12/11 06:35:35;;;;;;;0.30;0.30;;;22.20;45.10;;;;;;5091422;28;20177;-72
2021/12/11 06:38:06;;;;;;;0.35;0.35;;;22.20;45.10;;;;;;5074014;28;20189;-71
2021/12/11 06:40:32;;;;;;;0.30;0.30;;;22.20;45.10;;;;;;5088063;28;20173;-72
2021/12/11 06:42:59;;;;;;;0.30;0.30;;;22.20;45.20;;;;;;5087504;28;20217;-72
2021/12/11 06:45:27;;;;;;;0.38;0.38;;;22.20;45.20;;;;;;5070963;28;20247;-72
2021/12/11 06:47:53;;;;;;;0.35;0.35;;;22.20;45.80;;;;;;5070933;28;20192;-72
2021/12/11 06:50:20;;;;;;;0.35;0.35;;;22.20;45.20;;;;;;5070875;28;20676;-72
2021/12/11 06:52:49;;;;;;;0.40;0.40;;;22.20;45.20;;;;;;5072420;28;20224;-71
2021/12/11 06:55:17;;;;;;;0.35;0.35;;;22.20;45.20;;;;;;5072087;28;20174;-71
2021/12/11 06:57:45;;;;;;;0.30;0.20;;;22.20;45.20;;;;;;5087201;28;20239;-71
2021/12/11 07:00:17;;;;;;;0.30;0.30;;;22.20;45.20;;;;;;5087818;28;20190;-71
2021/12/11 07:02:42;;;;;;;0.40;0.40;;;22.20;45.20;;;;;;5053829;28;20214;-72
2021/12/11 07:05:09;;;;;;;0.35;0.35;;;22.20;45.20;;;;;;5053907;28;20235;-72
2021/12/11 07:07:36;;;;;;;0.30;0.30;;;22.20;45.20;;;;;;5099927;28;20169;-71
2021/12/11 07:10:09;;;;;;;1.15;0.38;;;22.20;45.20;;;;;;5075593;28;20622;-72
2021/12/11 07:12:35;;;;;;;0.45;0.30;;;22.20;45.20;;;;;;5070556;28;20205;-72
2021/12/11 07:15:06;;;;;;;0.38;0.38;;;22.20;45.10;;;;;;5070611;28;20186;-71
2021/12/11 07:17:34;;;;;;;0.40;0.40;;;22.20;45.10;;;;;;5070394;28;20178;-70
2021/12/11 07:20:07;;;;;;;0.30;0.30;;;22.20;45.20;;;;;;5071452;28;20204;-71
2021/12/11 07:22:34;;;;;;;0.30;0.30;;;22.20;45.30;;;;;;5091234;28;20226;-71
2021/12/11 07:25:22;;;;;;;0.65;0.40;;;22.20;45.20;;;;;;5075648;28;20181;-71
2021/12/11 07:27:49;;;;;;;0.40;0.40;;;22.10;45.10;;;;;;5104950;28;20239;-71
2021/12/11 07:30:16;;;;;;;0.40;0.40;;;22.20;45.20;;;;;;5088255;28;20272;-71
2021/12/11 07:32:42;;;;;;;0.30;0.30;;;22.20;45.10;;;;;;5077203;28;20216;-70
2021/12/11 07:35:09;;;;;;;0.30;0.30;;;22.20;45.20;;;;;;5111507;28;20189;-71
2021/12/11 07:37:36;;;;;;;0.38;0.38;;;22.20;45.10;;;;;;5076746;28;20184;-71
2021/12/11 07:40:08;;;;;;;0.40;0.40;;;22.20;45.10;;;;;;5093384;28;20177;-71
2021/12/11 07:42:36;;;;;;;0.40;0.30;;;22.20;45.10;;;;;;5083168;28;20225;-71
2021/12/11 07:45:03;;;;;;;0.30;0.30;;;22.20;45.10;;;;;;5107644;28;20181;-71
2021/12/11 07:47:29;;;;;;;0.40;0.40;;;22.20;45.10;;;;;;5073935;28;20185;-71
2021/12/11 07:49:55;;;;;;;0.30;0.30;;;22.20;45.20;;;;;;5074930;28;20667;-71
2021/12/11 07:52:21;;;;;;;0.30;0.30;;;22.20;45.10;;;;;;5076054;28;20220;-71
2021/12/11 07:54:46;;;;;;;0.75;0.57;;;22.20;45.10;;;;;;5093872;28;20275;-72
2021/12/11 07:57:12;;;;;;;0.30;0.30;;;22.20;45.20;;;;;;5094034;28;20246;-71
2021/12/11 07:59:38;;;;;;;0.30;0.30;;;22.20;45.10;;;;;;5093560;28;20195;-71
2021/12/11 08:02:05;;;;;;;0.40;0.40;;;22.20;45.10;;;;;;5073541;28;20632;-71
2021/12/11 08:04:31;;;;;;;0.43;0.43;;;22.20;45.20;;;;;;5073680;28;20174;-71
2021/12/11 08:06:56;;;;;;;0.30;0.30;;;22.20;45.20;;;;;;5065413;28;20188;-71
2021/12/11 08:09:24;;;;;;;0.30;0.30;;;22.20;45.20;;;;;;5093268;28;20172;-71
2021/12/11 08:11:51;;;;;;;0.40;0.40;;;22.30;45.30;;;;;;5078417;28;20201;-71
2021/12/11 08:14:18;;;;;;;0.30;0.30;;;22.20;45.20;;;;;;5092098;28;20231;-71
2021/12/11 08:16:46;;;;;;;0.32;0.32;;;22.20;45.20;;;;;;5094541;28;20180;-71
2021/12/11 08:19:19;;;;;;;0.40;0.40;;;22.30;45.30;;;;;;5076519;28;20177;-71
2021/12/11 08:21:49;;;;;;;0.35;0.35;;;22.20;45.30;;;;;;5093442;28;20264;-71
2021/12/11 08:24:16;;;;;;;0.30;0.30;;;22.20;45.30;;;;;;5076476;28;20222;-71
2021/12/11 08:26:43;;;;;;;0.40;0.30;;;22.30;45.40;;;;;;5076547;28;20181;-71
2021/12/11 08:29:13;;;;;;;0.40;0.40;;;22.30;45.40;;;;;;5076238;28;20189;-71
2021/12/11 08:31:43;;;;;;;0.30;0.30;;;22.30;45.40;;;;;;5075228;28;20228;-71
2021/12/11 08:34:10;;;;;;;0.30;0.30;;;22.20;45.30;;;;;;5093252;28;20181;-71
2021/12/11 08:36:37;;;;;;;2.17;0.30;;;22.20;45.30;;;;;;5092378;28;20181;-71
2021/12/11 08:39:09;;;;;;;0.30;0.30;;;22.20;45.30;;;;;;5086602;28;20188;-71
2021/12/11 08:41:37;;;;;;;0.30;0.30;;;22.20;45.40;;;;;;5093073;28;20205;-71
2021/12/11 08:44:10;;;;;;;1.30;0.40;;;22.20;45.40;;;;;;5094303;28;20242;-71
2021/12/11 08:46:39;;;;;;;0.30;0.30;;;22.30;45.50;;;;;;5089544;28;20181;-71
2021/12/11 08:49:12;;;;;;;0.35;0.35;;;22.30;45.50;;;;;;5072433;28;20209;-71
2021/12/11 08:52:06;;;;;;;0.30;0.30;;;22.20;45.30;;;;;;5072552;28;20205;-71
2021/12/11 08:54:35;;;;;;;0.40;0.40;;;22.30;45.50;;;;;;5079253;28;20178;-72
2021/12/11 08:57:07;;;;;;;0.43;0.32;;;22.30;45.50;;;;;;5071735;28;20222;-71
2021/12/11 08:59:38;;;;;;;0.32;0.30;;;22.20;45.40;;;;;;5109596;28;20200;-72
2021/12/11 09:02:23;;;;;;;1.05;0.38;;;22.30;45.50;;;;;;5075687;28;20221;-71
2021/12/11 09:05:11;;;;;;;0.40;0.40;;;22.20;45.40;;;;;;5109843;28;20569;-71
2021/12/11 09:08:17;;;;;;;0.30;0.30;;;22.20;45.50;;;;;;5075305;28;20201;-71
2021/12/11 09:11:01;;;;;;;0.30;0.30;;;22.20;45.40;;;;;;5058704;28;20201;-71
2021/12/11 09:13:32;;;;;;;0.47;0.47;;;22.20;45.50;;;;;;5074844;28;20208;-71
2021/12/11 09:16:42;;;;;;;0.40;0.40;;;22.20;45.50;;;;;;5075713;28;20185;-70
2021/12/11 09:19:28;;;;;;;1.13;0.40;;;22.20;45.60;;;;;;5030779;28;20293;-71
2021/12/11 09:22:07;;;;;;;0.50;0.40;;;22.20;45.40;;;;;;5085707;28;20220;-71
2021/12/11 09:25:23;;;;;;;0.85;0.43;;;22.30;45.60;;;;;;5093464;28;20252;-71
2021/12/11 09:28:47;;;;;;;0.32;0.32;;;22.20;45.40;;;;;;5088201;28;20224;-70
2021/12/11 09:31:25;;;;;;;0.40;0.40;;;22.20;45.50;;;;;;5060364;28;20205;-71
2021/12/11 09:34:02;;;;;;;1.50;0.50;;;22.20;45.40;;;;;;5092283;28;20234;-69
2021/12/11 09:36:35;;;;;;;0.95;0.45;;;22.20;45.50;;;;;;5092130;28;20192;-70
2021/12/11 09:39:26;;;;;;;0.63;0.50;;;22.30;45.50;;;;;;5092748;28;20188;-71
2021/12/11 09:41:52;;;;;;;0.30;0.30;;;22.20;45.40;;;;;;5088416;28;20210;-70
2021/12/11 09:44:27;;;;;;;0.60;0.40;;;22.30;45.50;;;;;;5088489;28;20189;-68
2021/12/11 09:47:00;;;;;;;0.63;0.40;;;22.30;45.50;;;;;;5088460;28;20185;-71
2021/12/11 09:49:34;;;;;;;0.50;0.50;;;22.30;45.50;;;;;;5088338;28;20170;-71
2021/12/11 09:52:16;;;;;;;0.65;0.60;;;22.20;45.40;;;;;;5071666;28;20239;-71
2021/12/11 09:55:10;;;;;;;2.92;0.40;;;22.30;45.50;;;;;;5088338;28;20173;-71
2021/12/11 09:57:44;;;;;;;0.50;0.50;;;22.30;45.60;;;;;;5071274;28;20178;-72
2021/12/11 10:00:31;;;;;;;0.50;0.50;;;22.30;45.60;;;;;;5072032;28;20174;-72
2021/12/11 10:02:57;;;;;;;0.60;0.50;;;22.30;45.60;;;;;;5071855;28;20212;-72
2021/12/11 10:05:49;;;;;;;0.50;0.50;;;22.30;45.60;;;;;;5071353;28;20189;-72
2021/12/11 10:08:31;;;;;;;1.17;0.80;;;22.30;45.60;;;;;;5087445;28;20201;-72
2021/12/11 10:11:18;;;;;;;0.60;0.60;;;22.30;45.60;;;;;;5074703;28;20204;-72
2021/12/11 10:13:50;;;;;;;0.40;0.40;;;22.30;45.60;;;;;;5092603;28;20290;-72
2021/12/11 10:16:21;;;;;;;0.60;0.60;;;22.30;45.50;;;;;;5074456;28;20173;-72
2021/12/11 10:18:48;;;;;;;2.28;0.80;;;22.20;45.40;;;;;;5091250;28;20193;-72
2021/12/11 10:21:21;;;;;;;0.63;0.57;;;22.30;45.50;;;;;;5091404;28;20184;-71
2021/12/11 10:23:51;;;;;;;1.30;0.65;;;22.30;45.40;;;;;;5092427;28;20258;-72
2021/12/11 10:26:20;;;;;;;1.60;0.70;;;22.30;45.50;;;;;;5091755;28;20200;-72
2021/12/11 10:28:53;;;;;;;0.80;0.50;;;22.30;45.50;;;;;;5091194;28;20169;-72
2021/12/11 10:31:32;;;;;;;0.85;0.77;;;22.30;45.50;;;;;;5091514;28;20177;-71
2021/12/11 10:34:02;;;;;;;1.05;0.70;;;22.30;45.40;;;;;;5091269;28;20198;-72
2021/12/11 10:36:34;;;;;;;1.02;0.60;;;22.30;45.40;;;;;;5107784;28;20204;-72
2021/12/11 10:39:05;;;;;;;1.15;0.63;;;22.30;46.00;;;;;;5083102;28;20232;-72
2021/12/11 10:41:32;;;;;;;1.50;0.68;;;22.30;45.40;;;;;;5070761;28;20214;-72
2021/12/11 10:44:34;;;;;;;1.73;0.73;;;22.30;45.40;;;;;;5070713;28;20213;-73
2021/12/11 10:47:12;;;;;;;1.60;0.70;;;22.30;45.50;;;;;;5052400;28;20280;-72
2021/12/11 10:49:40;;;;;;;0.73;0.70;;;22.30;45.40;;;;;;5070915;28;20174;-72
2021/12/11 10:52:14;;;;;;;0.75;0.70;;;22.30;45.40;;;;;;5070869;28;20221;-72
2021/12/11 10:54:40;;;;;;;0.80;0.80;;;22.30;45.40;;;;;;5071481;28;20227;-72
2021/12/11 10:57:07;;;;;;;0.60;0.60;;;22.30;45.40;;;;;;5058462;28;20328;-72
2021/12/11 10:59:39;;;;;;;1.10;0.98;;;22.30;45.40;;;;;;5074501;28;20185;-73
2021/12/11 11:02:12;;;;;;;1.27;0.90;;;22.30;45.40;;;;;;5074152;28;20217;-72
2021/12/11 11:05:06;;;;;;;1.30;1.08;;;22.30;45.40;;;;;;5093125;28;20208;-71
2021/12/11 11:07:33;;;;;;;1.35;0.90;;;22.30;45.40;;;;;;5071324;28;20185;-71
2021/12/11 11:10:05;;;;;;;1.15;0.90;;;22.30;45.40;;;;;;5112015;28;20177;-71
2021/12/11 11:12:32;;;;;;;0.80;0.80;;;22.30;45.40;;;;;;5092574;28;20197;-71
2021/12/11 11:14:59;;;;;;;1.13;0.75;;;22.30;45.40;;;;;;5078112;28;20185;-71
2021/12/11 11:17:32;;;;;;;1.02;0.80;;;22.30;45.40;;;;;;5094655;28;20177;-71
2021/12/11 11:19:59;;;;;;;1.52;1.00;;;22.30;45.40;;;;;;5094912;28;20192;-71
2021/12/11 11:22:33;;;;;;;1.05;0.90;;;22.30;45.90;;;;;;5094732;28;20245;-71
2021/12/11 11:25:24;;;;;;;1.15;0.70;;;22.40;45.40;;;;;;5094547;28;20211;-71
2021/12/11 11:27:57;;;;;;;0.90;0.90;;;22.30;45.40;;;;;;5094618;28;20212;-71
2021/12/11 11:30:31;;;;;;;1.65;0.80;;;22.40;45.40;;;;;;5094289;28;20177;-71
2021/12/11 11:32:59;;;;;;;1.33;0.90;;;22.30;45.40;;;;;;5094213;28;20209;-71
2021/12/11 11:35:29;;;;;;;2.78;0.93;;;22.30;45.40;;;;;;5095541;28;20181;-71
2021/12/11 11:37:59;;;;;;;0.80;0.80;;;22.30;45.40;;;;;;5091029;28;20189;-71
2021/12/11 11:40:36;;;;;;;0.95;0.95;;;22.30;45.40;;;;;;5093562;28;20208;-71
2021/12/11 11:43:05;;;;;;;1.10;0.80;;;22.30;45.40;;;;;;5077102;28;20208;-71
2021/12/11 11:45:32;;;;;;;0.68;0.68;;;22.40;45.40;;;;;;5111122;28;20169;-71
2021/12/11 11:47:59;;;;;;;1.23;0.93;;;22.40;45.40;;;;;;5077255;28;20192;-71
2021/12/11 11:50:35;;;;;;;1.38;0.80;;;22.30;45.30;;;;;;5094339;28;20177;-71
2021/12/11 11:53:03;;;;;;;0.95;0.90;;;22.30;45.30;;;;;;5121275;22;20235;-67
2021/12/11 11:55:39;;;;;;;0.80;0.80;;;22.30;45.30;;;;;;5080354;28;20176;-67
2021/12/11 11:58:07;;;;;;;1.65;0.98;;;22.30;45.30;;;;;;5114000;28;20176;-67
2021/12/11 12:00:43;;;;;;;0.80;0.80;;;22.30;45.20;;;;;;5115623;28;20179;-67
2021/12/11 12:03:17;;;;;;;1.77;1.00;;;22.30;45.30;;;;;;5096963;28;20212;-67
2021/12/11 12:05:49;;;;;;;0.85;0.85;;;22.30;45.30;;;;;;5096939;28;20177;-67
2021/12/11 12:08:16;;;;;;;1.40;0.80;;;22.30;45.30;;;;;;5105773;28;20185;-67
2021/12/11 12:10:45;;;;;;;0.95;0.90;;;22.30;45.20;;;;;;5097199;28;20188;-67
2021/12/11 12:13:14;;;;;;;1.13;1.00;;;22.30;45.20;;;;;;5096851;28;20204;-67
2021/12/11 12:15:50;;;;;;;0.90;0.90;;;22.30;45.50;;;;;;5115113;28;20195;-68
2021/12/11 12:18:18;;;;;;;1.20;1.02;;;22.30;45.20;;;;;;5097083;28;20191;-68
2021/12/11 12:20:48;;;;;;;1.13;0.80;;;22.30;45.30;;;;;;5113908;28;20172;-67
2021/12/11 12:23:15;;;;;;;1.10;1.00;;;22.30;45.20;;;;;;5096862;28;20216;-68
2021/12/11 12:25:43;;;;;;;0.80;0.70;;;22.40;45.30;;;;;;5079903;28;20277;-68
2021/12/11 12:28:09;;;;;;;1.02;1.00;;;22.30;45.20;;;;;;5096331;28;20176;-67
2021/12/11 12:30:55;;;;;;;1.00;0.80;;;22.30;45.20;;;;;;5093075;28;20173;-68
2021/12/11 12:33:22;;;;;;;0.85;0.82;;;22.30;45.20;;;;;;5059474;28;20254;-67
2021/12/11 12:35:49;;;;;;;2.22;0.93;;;22.30;45.20;;;;;;5060026;28;20220;-68
2021/12/11 12:38:21;;;;;;;1.05;0.90;;;22.30;45.10;;;;;;5085683;28;20327;-67
2021/12/11 12:41:09;;;;;;;1.05;0.88;;;22.30;45.20;;;;;;5113499;28;20271;-68
2021/12/11 12:46:33;;;;;;;1.42;0.90;;;22.30;45.20;;;;;;5096741;28;20190;-67
2021/12/11 12:49:00;;;;;;;1.00;0.80;;;22.30;45.20;;;;;;5096140;28;20213;-68
2021/12/11 12:51:29;;;;;;;0.93;0.85;;;22.30;45.10;;;;;;5114442;28;20647;-68
2021/12/11 12:53:59;;;;;;;0.98;0.98;;;22.30;45.10;;;;;;5079480;28;20651;-68
2021/12/11 12:56:35;;;;;;;1.33;1.15;;;22.30;45.10;;;;;;5114357;28;20180;-68
2021/12/11 12:59:24;;;;;;;1.13;1.02;;;22.30;45.10;;;;;;5096362;28;20183;-67
2021/12/11 13:02:00;;;;;;;2.35;0.90;;;22.30;45.10;;;;;;5114186;28;20204;-67
2021/12/11 13:04:32;;;;;;;1.40;0.93;;;22.30;45.10;;;;;;5095905;28;20205;-68
2021/12/11 13:07:06;;;;;;;1.20;1.10;;;22.30;45.10;;;;;;5095586;28;20203;-68
2021/12/11 13:09:41;;;;;;;2.88;1.00;;;22.30;45.10;;;;;;5082376;28;20675;-68
2021/12/11 13:12:24;;;;;;;1.20;1.00;;;22.30;45.20;;;;;;5058806;28;20204;-67
2021/12/11 13:14:58;;;;;;;1.85;1.20;;;22.30;45.10;;;;;;5093633;28;20627;-68
2021/12/11 13:17:30;;;;;;;1.08;0.90;;;22.30;45.10;;;;;;5100823;28;20188;-67
2021/12/11 13:20:06;;;;;;;1.58;1.02;;;22.30;45.10;;;;;;5095631;28;20194;-68
2021/12/11 13:22:38;;;;;;;1.45;1.00;;;22.30;45.10;;;;;;5107590;28;20644;-68
2021/12/11 13:25:19;;;;;;;1.05;0.93;;;22.30;45.20;;;;;;5075625;28;20181;-68
2021/12/11 13:27:49;;;;;;;0.90;0.90;;;22.30;45.20;;;;;;5058709;28;20184;-68
2021/12/11 13:30:24;;;;;;;1.17;1.00;;;22.30;45.20;;;;;;5080518;28;20177;-68
2021/12/11 13:32:51;;;;;;;1.30;1.02;;;22.30;45.20;;;;;;5087022;28;20238;-68
2021/12/11 13:35:23;;;;;;;0.88;0.88;;;22.30;45.20;;;;;;5095512;28;20184;-68
2021/12/11 13:37:50;;;;;;;1.50;1.40;;;22.30;45.20;;;;;;5087477;28;20177;-68